Hauptseite
METAR-TAF:

METAR-TAF

Flughäfen :

Koror, Babelthuap Island, Palau

Flughafen Koror

Breite: 07-22N, Länge: 134-32E, Höhe: 54 m

Beobachtung

Neuester Wetterbericht von vor 1 Stunde und 13 Minuten, um 12:50 UTC
Wind 8 kt aus Süd
Temperatur 28°C
Luftfeuchtigkeit 89%
Luftdruck 1009 hPa
Sichtweite: 22.5 km
Aufgelockert bewölkt in der Höhe von 1600 ft
Durchbrochene Bewölkung in der Höhe von 12000 ft
Durchbrochene Bewölkung in der Höhe von 30000 ft

METAR: PTRO 201250Z 17008KT 14SM SCT016 BKN120 BKN300 28/26 A2981

Zeit: 23:03 (14:03 UTC)

Prognose

Neuester Wetterbericht von vor 2 Stunden und 26 Minuten, um 11:37 UTC
Gültige Prognose vom 20 um 12 UTC bis 21 um 12 UTC
Wind 11 kt aus Süd/Südwest
Sichtweite: 10 km
Aufgelockert bewölkt in der Höhe von 1600 ft
Durchbrochene Bewölkung in der Höhe von 12000 ft
Schauer in der Nähe

TAF: PTRO 201137Z 2012/2112 21011KT P6SM VCSH SCT016 BKN120

Wetterbeobachtungen und Prognosen von mehr als 4000 Flughäfen (METAR und TAF Bericht).

Die verfügbaren Stationen werden durch gelbe und rote Markierungen auf der Karte dargestellt.

Führen Sie die Maus auf sie, um den Namen der Station zu sehen.

Darauf klicken, um die Beobachtung von Wetterbeobachtungen und Prognosen zu sehen.

Um die Karte zu ändern : klicken Sie auf den grünen Tasten mit einem schwarzen Kreuz Zum Vergrößern, auf den grünen Button mit einem Gedankenstrich zu verkleinern, oder auf die grünen Pfeile für benachbarte Karten.


METAR-TAF: